sensor_id;sensor_type;location;lat;lon;timestamp;P1;durP1;ratioP1;P2;durP2;ratioP2
69358;SDS011;56520;49.066;8.660;2023-04-24T00:01:13;1.95;;;0.40;;
69358;SDS011;56520;49.066;8.660;2023-04-24T00:03:42;1.50;;;0.60;;
69358;SDS011;56520;49.066;8.660;2023-04-24T00:06:07;2.53;;;0.60;;
69358;SDS011;56520;49.066;8.660;2023-04-24T00:08:33;1.50;;;0.50;;
69358;SDS011;56520;49.066;8.660;2023-04-24T00:10:59;1.00;;;0.50;;
69358;SDS011;56520;49.066;8.660;2023-04-24T00:13:25;1.02;;;0.52;;
69358;SDS011;56520;49.066;8.660;2023-04-24T00:15:50;1.48;;;0.70;;
69358;SDS011;56520;49.066;8.660;2023-04-24T00:18:16;1.27;;;0.40;;
69358;SDS011;56520;49.066;8.660;2023-04-24T00:20:41;1.45;;;0.75;;
69358;SDS011;56520;49.066;8.660;2023-04-24T00:23:08;1.35;;;0.50;;
69358;SDS011;56520;49.066;8.660;2023-04-24T00:25:34;2.70;;;0.82;;
69358;SDS011;56520;49.066;8.660;2023-04-24T00:27:59;3.42;;;0.52;;
69358;SDS011;56520;49.066;8.660;2023-04-24T00:30:25;2.15;;;0.65;;
69358;SDS011;56520;49.066;8.660;2023-04-24T00:32:50;0.60;;;0.40;;
69358;SDS011;56520;49.066;8.660;2023-04-24T00:35:16;1.35;;;0.50;;
69358;SDS011;56520;49.066;8.660;2023-04-24T00:37:41;0.63;;;0.38;;
69358;SDS011;56520;49.066;8.660;2023-04-24T00:40:07;2.25;;;0.60;;
69358;SDS011;56520;49.066;8.660;2023-04-24T00:42:32;2.88;;;0.50;;
69358;SDS011;56520;49.066;8.660;2023-04-24T00:44:58;2.15;;;0.45;;
69358;SDS011;56520;49.066;8.660;2023-04-24T00:47:25;2.13;;;0.40;;
69358;SDS011;56520;49.066;8.660;2023-04-24T00:49:51;1.88;;;0.85;;
69358;SDS011;56520;49.066;8.660;2023-04-24T00:52:17;1.67;;;0.38;;
69358;SDS011;56520;49.066;8.660;2023-04-24T00:54:45;0.95;;;0.50;;
69358;SDS011;56520;49.066;8.660;2023-04-24T00:57:11;0.88;;;0.43;;
69358;SDS011;56520;49.066;8.660;2023-04-24T00:59:41;2.55;;;0.70;;
69358;SDS011;56520;49.066;8.660;2023-04-24T01:02:07;0.95;;;0.38;;
69358;SDS011;56520;49.066;8.660;2023-04-24T01:04:34;5.68;;;0.70;;
69358;SDS011;56520;49.066;8.660;2023-04-24T01:07:00;2.33;;;0.73;;
69358;SDS011;56520;49.066;8.660;2023-04-24T01:09:25;1.08;;;0.50;;
69358;SDS011;56520;49.066;8.660;2023-04-24T01:11:51;0.98;;;0.52;;
69358;SDS011;56520;49.066;8.660;2023-04-24T01:14:17;2.53;;;0.80;;
69358;SDS011;56520;49.066;8.660;2023-04-24T01:16:43;1.55;;;0.55;;
69358;SDS011;56520;49.066;8.660;2023-04-24T01:19:08;1.05;;;0.40;;
69358;SDS011;56520;49.066;8.660;2023-04-24T01:21:38;0.55;;;0.38;;
69358;SDS011;56520;49.066;8.660;2023-04-24T01:24:05;1.58;;;0.52;;
69358;SDS011;56520;49.066;8.660;2023-04-24T01:26:31;2.05;;;0.60;;
69358;SDS011;56520;49.066;8.660;2023-04-24T01:28:56;1.50;;;0.50;;
69358;SDS011;56520;49.066;8.660;2023-04-24T01:31:22;2.28;;;0.50;;
69358;SDS011;56520;49.066;8.660;2023-04-24T01:33:48;1.77;;;0.45;;
69358;SDS011;56520;49.066;8.660;2023-04-24T01:36:14;2.72;;;0.80;;
69358;SDS011;56520;49.066;8.660;2023-04-24T01:38:41;0.95;;;0.40;;
69358;SDS011;56520;49.066;8.660;2023-04-24T01:41:06;0.70;;;0.40;;
69358;SDS011;56520;49.066;8.660;2023-04-24T01:43:32;1.75;;;0.60;;
69358;SDS011;56520;49.066;8.660;2023-04-24T01:45:57;1.38;;;0.60;;
69358;SDS011;56520;49.066;8.660;2023-04-24T01:48:23;0.85;;;0.40;;
69358;SDS011;56520;49.066;8.660;2023-04-24T01:50:48;1.05;;;0.70;;
69358;SDS011;56520;49.066;8.660;2023-04-24T01:53:14;2.78;;;0.60;;
69358;SDS011;56520;49.066;8.660;2023-04-24T01:55:42;1.42;;;0.50;;
69358;SDS011;56520;49.066;8.660;2023-04-24T01:58:08;2.28;;;0.63;;
69358;SDS011;56520;49.066;8.660;2023-04-24T02:00:33;2.45;;;0.40;;
69358;SDS011;56520;49.066;8.660;2023-04-24T02:02:58;2.08;;;0.52;;
69358;SDS011;56520;49.066;8.660;2023-04-24T02:05:24;1.20;;;0.40;;
69358;SDS011;56520;49.066;8.660;2023-04-24T02:07:49;1.27;;;0.30;;
69358;SDS011;56520;49.066;8.660;2023-04-24T02:10:15;2.25;;;0.70;;
69358;SDS011;56520;49.066;8.660;2023-04-24T02:12:40;1.38;;;0.50;;
69358;SDS011;56520;49.066;8.660;2023-04-24T02:15:08;2.55;;;0.70;;
69358;SDS011;56520;49.066;8.660;2023-04-24T02:17:34;1.38;;;0.50;;
69358;SDS011;56520;49.066;8.660;2023-04-24T02:20:00;1.50;;;0.50;;
69358;SDS011;56520;49.066;8.660;2023-04-24T02:22:25;0.95;;;0.40;;
69358;SDS011;56520;49.066;8.660;2023-04-24T02:24:50;4.10;;;0.77;;
69358;SDS011;56520;49.066;8.660;2023-04-24T02:27:16;2.17;;;0.85;;
69358;SDS011;56520;49.066;8.660;2023-04-24T02:29:41;0.95;;;0.35;;
69358;SDS011;56520;49.066;8.660;2023-04-24T02:32:07;0.98;;;0.50;;
69358;SDS011;56520;49.066;8.660;2023-04-24T02:34:36;1.77;;;0.40;;
69358;SDS011;56520;49.066;8.660;2023-04-24T02:37:01;1.50;;;0.80;;
69358;SDS011;56520;49.066;8.660;2023-04-24T02:39:27;1.17;;;0.50;;
69358;SDS011;56520;49.066;8.660;2023-04-24T02:41:52;1.75;;;0.60;;
69358;SDS011;56520;49.066;8.660;2023-04-24T02:44:17;1.85;;;0.80;;
69358;SDS011;56520;49.066;8.660;2023-04-24T02:46:43;1.10;;;0.50;;
69358;SDS011;56520;49.066;8.660;2023-04-24T02:49:08;1.65;;;0.65;;
69358;SDS011;56520;49.066;8.660;2023-04-24T02:51:34;1.55;;;0.45;;
69358;SDS011;56520;49.066;8.660;2023-04-24T02:53:59;2.95;;;0.80;;
69358;SDS011;56520;49.066;8.660;2023-04-24T02:56:25;1.63;;;0.57;;
69358;SDS011;56520;49.066;8.660;2023-04-24T02:58:50;2.25;;;0.80;;
69358;SDS011;56520;49.066;8.660;2023-04-24T03:01:18;1.48;;;0.75;;
69358;SDS011;56520;49.066;8.660;2023-04-24T03:03:43;1.00;;;0.30;;
69358;SDS011;56520;49.066;8.660;2023-04-24T03:06:09;0.95;;;0.52;;
69358;SDS011;56520;49.066;8.660;2023-04-24T03:08:35;2.05;;;0.63;;
69358;SDS011;56520;49.066;8.660;2023-04-24T03:11:00;0.68;;;0.30;;
69358;SDS011;56520;49.066;8.660;2023-04-24T03:13:25;1.58;;;0.55;;
69358;SDS011;56520;49.066;8.660;2023-04-24T03:15:51;2.35;;;0.70;;
69358;SDS011;56520;49.066;8.660;2023-04-24T03:18:17;0.45;;;0.32;;
69358;SDS011;56520;49.066;8.660;2023-04-24T03:20:45;0.68;;;0.40;;
69358;SDS011;56520;49.066;8.660;2023-04-24T03:23:11;2.72;;;0.50;;
69358;SDS011;56520;49.066;8.660;2023-04-24T03:25:36;1.52;;;0.47;;
69358;SDS011;56520;49.066;8.660;2023-04-24T03:28:02;3.33;;;0.47;;
69358;SDS011;56520;49.066;8.660;2023-04-24T03:30:27;1.92;;;0.40;;
69358;SDS011;56520;49.066;8.660;2023-04-24T03:32:52;0.80;;;0.30;;
69358;SDS011;56520;49.066;8.660;2023-04-24T03:35:18;0.98;;;0.57;;
69358;SDS011;56520;49.066;8.660;2023-04-24T03:37:43;4.82;;;0.57;;
69358;SDS011;56520;49.066;8.660;2023-04-24T03:40:09;1.30;;;0.55;;
69358;SDS011;56520;49.066;8.660;2023-04-24T03:42:34;1.13;;;0.45;;
69358;SDS011;56520;49.066;8.660;2023-04-24T03:45:00;1.90;;;0.40;;
69358;SDS011;56520;49.066;8.660;2023-04-24T03:47:25;2.08;;;0.73;;
69358;SDS011;56520;49.066;8.660;2023-04-24T03:49:51;2.03;;;0.68;;
69358;SDS011;56520;49.066;8.660;2023-04-24T03:52:17;1.52;;;0.70;;
69358;SDS011;56520;49.066;8.660;2023-04-24T03:54:42;4.50;;;1.20;;
69358;SDS011;56520;49.066;8.660;2023-04-24T03:57:07;2.97;;;1.00;;
69358;SDS011;56520;49.066;8.660;2023-04-24T03:59:33;2.58;;;0.90;;
69358;SDS011;56520;49.066;8.660;2023-04-24T04:01:58;2.75;;;0.90;;
69358;SDS011;56520;49.066;8.660;2023-04-24T04:04:24;2.10;;;0.82;;
69358;SDS011;56520;49.066;8.660;2023-04-24T04:06:49;2.33;;;0.90;;
69358;SDS011;56520;49.066;8.660;2023-04-24T04:09:14;2.63;;;0.90;;
69358;SDS011;56520;49.066;8.660;2023-04-24T04:11:40;2.50;;;0.90;;
69358;SDS011;56520;49.066;8.660;2023-04-24T04:14:05;2.85;;;0.80;;
69358;SDS011;56520;49.066;8.660;2023-04-24T04:16:31;3.45;;;1.10;;
69358;SDS011;56520;49.066;8.660;2023-04-24T04:18:56;3.05;;;0.98;;
69358;SDS011;56520;49.066;8.660;2023-04-24T04:21:21;2.95;;;0.93;;
69358;SDS011;56520;49.066;8.660;2023-04-24T04:23:47;3.03;;;1.00;;
69358;SDS011;56520;49.066;8.660;2023-04-24T04:26:13;3.05;;;0.88;;
69358;SDS011;56520;49.066;8.660;2023-04-24T04:28:50;1.45;;;0.75;;
69358;SDS011;56520;49.066;8.660;2023-04-24T04:31:16;2.15;;;0.73;;
69358;SDS011;56520;49.066;8.660;2023-04-24T04:33:41;3.30;;;0.75;;
69358;SDS011;56520;49.066;8.660;2023-04-24T04:36:07;2.08;;;0.85;;
69358;SDS011;56520;49.066;8.660;2023-04-24T04:38:33;4.50;;;1.45;;
69358;SDS011;56520;49.066;8.660;2023-04-24T04:40:59;2.85;;;0.80;;
69358;SDS011;56520;49.066;8.660;2023-04-24T04:43:25;2.83;;;0.90;;
69358;SDS011;56520;49.066;8.660;2023-04-24T04:45:51;1.95;;;0.82;;
69358;SDS011;56520;49.066;8.660;2023-04-24T04:48:17;3.15;;;0.73;;
69358;SDS011;56520;49.066;8.660;2023-04-24T04:50:43;2.17;;;0.80;;
69358;SDS011;56520;49.066;8.660;2023-04-24T04:53:09;2.67;;;1.02;;
69358;SDS011;56520;49.066;8.660;2023-04-24T04:55:35;2.33;;;1.08;;
69358;SDS011;56520;49.066;8.660;2023-04-24T04:58:01;1.60;;;0.60;;
69358;SDS011;56520;49.066;8.660;2023-04-24T05:00:27;3.20;;;0.88;;
69358;SDS011;56520;49.066;8.660;2023-04-24T05:02:53;2.92;;;1.08;;
69358;SDS011;56520;49.066;8.660;2023-04-24T05:05:19;2.95;;;0.82;;
69358;SDS011;56520;49.066;8.660;2023-04-24T05:07:44;3.15;;;1.00;;
69358;SDS011;56520;49.066;8.660;2023-04-24T05:10:10;8.85;;;1.10;;
69358;SDS011;56520;49.066;8.660;2023-04-24T05:12:38;1.90;;;0.80;;
69358;SDS011;56520;49.066;8.660;2023-04-24T05:15:04;4.57;;;1.02;;
69358;SDS011;56520;49.066;8.660;2023-04-24T05:17:29;2.90;;;0.93;;
69358;SDS011;56520;49.066;8.660;2023-04-24T05:19:55;2.50;;;0.90;;
69358;SDS011;56520;49.066;8.660;2023-04-24T05:22:20;2.92;;;0.93;;
69358;SDS011;56520;49.066;8.660;2023-04-24T05:24:46;3.58;;;1.13;;
69358;SDS011;56520;49.066;8.660;2023-04-24T05:27:12;2.53;;;0.90;;
69358;SDS011;56520;49.066;8.660;2023-04-24T05:29:37;3.80;;;0.90;;
69358;SDS011;56520;49.066;8.660;2023-04-24T05:32:03;2.20;;;0.82;;
69358;SDS011;56520;49.066;8.660;2023-04-24T05:34:28;5.68;;;1.20;;
69358;SDS011;56520;49.066;8.660;2023-04-24T05:36:54;2.72;;;1.00;;
69358;SDS011;56520;49.066;8.660;2023-04-24T05:39:19;3.35;;;0.95;;
69358;SDS011;56520;49.066;8.660;2023-04-24T05:41:45;3.33;;;1.20;;
69358;SDS011;56520;49.066;8.660;2023-04-24T05:44:10;2.53;;;0.90;;
69358;SDS011;56520;49.066;8.660;2023-04-24T05:46:36;3.47;;;1.38;;
69358;SDS011;56520;49.066;8.660;2023-04-24T05:49:01;3.10;;;1.13;;
69358;SDS011;56520;49.066;8.660;2023-04-24T05:51:27;3.33;;;0.98;;
69358;SDS011;56520;49.066;8.660;2023-04-24T05:53:53;4.15;;;1.20;;
69358;SDS011;56520;49.066;8.660;2023-04-24T05:56:19;3.50;;;1.05;;
69358;SDS011;56520;49.066;8.660;2023-04-24T05:58:45;3.50;;;1.13;;
69358;SDS011;56520;49.066;8.660;2023-04-24T06:01:11;4.50;;;1.10;;
69358;SDS011;56520;49.066;8.660;2023-04-24T06:03:40;3.45;;;1.17;;
69358;SDS011;56520;49.066;8.660;2023-04-24T06:06:06;3.90;;;1.10;;
69358;SDS011;56520;49.066;8.660;2023-04-24T06:08:32;3.17;;;1.00;;
69358;SDS011;56520;49.066;8.660;2023-04-24T06:10:58;3.60;;;1.15;;
69358;SDS011;56520;49.066;8.660;2023-04-24T06:13:24;5.75;;;1.55;;
69358;SDS011;56520;49.066;8.660;2023-04-24T06:15:49;4.32;;;1.00;;
69358;SDS011;56520;49.066;8.660;2023-04-24T06:18:15;3.75;;;1.20;;
69358;SDS011;56520;49.066;8.660;2023-04-24T06:20:40;2.90;;;0.90;;
69358;SDS011;56520;49.066;8.660;2023-04-24T06:23:06;3.35;;;1.15;;
69358;SDS011;56520;49.066;8.660;2023-04-24T06:25:31;2.90;;;1.15;;
69358;SDS011;56520;49.066;8.660;2023-04-24T06:27:57;3.60;;;1.25;;
69358;SDS011;56520;49.066;8.660;2023-04-24T06:30:22;2.75;;;0.88;;
69358;SDS011;56520;49.066;8.660;2023-04-24T06:32:48;4.45;;;1.10;;
69358;SDS011;56520;49.066;8.660;2023-04-24T06:35:13;3.70;;;1.17;;
69358;SDS011;56520;49.066;8.660;2023-04-24T06:37:39;3.55;;;1.20;;
69358;SDS011;56520;49.066;8.660;2023-04-24T06:40:06;3.42;;;1.10;;
69358;SDS011;56520;49.066;8.660;2023-04-24T06:42:32;4.38;;;1.08;;
69358;SDS011;56520;49.066;8.660;2023-04-24T06:45:06;3.22;;;1.15;;
69358;SDS011;56520;49.066;8.660;2023-04-24T06:47:34;2.95;;;0.90;;
69358;SDS011;56520;49.066;8.660;2023-04-24T06:50:00;3.17;;;1.10;;
69358;SDS011;56520;49.066;8.660;2023-04-24T06:52:28;4.85;;;1.63;;
69358;SDS011;56520;49.066;8.660;2023-04-24T06:54:59;3.28;;;1.08;;
69358;SDS011;56520;49.066;8.660;2023-04-24T06:57:26;3.67;;;1.00;;
69358;SDS011;56520;49.066;8.660;2023-04-24T06:59:51;2.45;;;0.90;;
69358;SDS011;56520;49.066;8.660;2023-04-24T07:02:16;4.07;;;1.30;;
69358;SDS011;56520;49.066;8.660;2023-04-24T07:04:42;3.08;;;1.05;;
69358;SDS011;56520;49.066;8.660;2023-04-24T07:07:07;3.25;;;1.08;;
69358;SDS011;56520;49.066;8.660;2023-04-24T07:09:34;2.47;;;0.90;;
69358;SDS011;56520;49.066;8.660;2023-04-24T07:12:03;2.38;;;0.93;;
69358;SDS011;56520;49.066;8.660;2023-04-24T07:14:28;5.68;;;1.33;;
69358;SDS011;56520;49.066;8.660;2023-04-24T07:16:54;3.40;;;1.20;;
69358;SDS011;56520;49.066;8.660;2023-04-24T07:19:19;2.22;;;0.93;;
69358;SDS011;56520;49.066;8.660;2023-04-24T07:21:45;3.58;;;1.05;;
69358;SDS011;56520;49.066;8.660;2023-04-24T07:24:10;2.33;;;0.80;;
69358;SDS011;56520;49.066;8.660;2023-04-24T07:26:37;2.60;;;0.80;;
69358;SDS011;56520;49.066;8.660;2023-04-24T07:29:04;2.88;;;0.93;;
69358;SDS011;56520;49.066;8.660;2023-04-24T07:31:30;3.92;;;1.02;;
69358;SDS011;56520;49.066;8.660;2023-04-24T07:33:55;2.67;;;1.02;;
69358;SDS011;56520;49.066;8.660;2023-04-24T07:36:22;3.10;;;1.08;;
69358;SDS011;56520;49.066;8.660;2023-04-24T07:38:49;4.75;;;1.30;;
69358;SDS011;56520;49.066;8.660;2023-04-24T07:41:14;3.25;;;1.00;;
69358;SDS011;56520;49.066;8.660;2023-04-24T07:43:40;2.60;;;0.85;;
69358;SDS011;56520;49.066;8.660;2023-04-24T07:46:06;5.10;;;1.20;;
69358;SDS011;56520;49.066;8.660;2023-04-24T07:48:35;4.40;;;1.23;;
69358;SDS011;56520;49.066;8.660;2023-04-24T07:51:01;2.88;;;0.90;;
69358;SDS011;56520;49.066;8.660;2023-04-24T07:53:27;2.95;;;0.98;;
69358;SDS011;56520;49.066;8.660;2023-04-24T07:55:53;2.33;;;0.82;;
69358;SDS011;56520;49.066;8.660;2023-04-24T07:58:19;3.90;;;1.10;;
69358;SDS011;56520;49.066;8.660;2023-04-24T08:00:45;5.50;;;1.02;;
69358;SDS011;56520;49.066;8.660;2023-04-24T08:03:10;3.15;;;1.00;;
69358;SDS011;56520;49.066;8.660;2023-04-24T08:05:37;2.80;;;0.95;;
69358;SDS011;56520;49.066;8.660;2023-04-24T08:08:03;3.65;;;0.90;;
69358;SDS011;56520;49.066;8.660;2023-04-24T08:10:28;2.60;;;0.88;;
69358;SDS011;56520;49.066;8.660;2023-04-24T08:12:53;1.38;;;0.60;;
69358;SDS011;56520;49.066;8.660;2023-04-24T08:15:20;3.45;;;0.88;;
69358;SDS011;56520;49.066;8.660;2023-04-24T08:17:46;3.05;;;1.10;;
69358;SDS011;56520;49.066;8.660;2023-04-24T08:20:11;2.00;;;0.70;;
69358;SDS011;56520;49.066;8.660;2023-04-24T08:22:40;1.48;;;0.60;;
69358;SDS011;56520;49.066;8.660;2023-04-24T08:25:07;6.43;;;0.73;;
69358;SDS011;56520;49.066;8.660;2023-04-24T08:27:33;3.50;;;0.90;;
69358;SDS011;56520;49.066;8.660;2023-04-24T08:29:59;2.03;;;0.70;;
69358;SDS011;56520;49.066;8.660;2023-04-24T08:32:24;2.70;;;0.90;;
69358;SDS011;56520;49.066;8.660;2023-04-24T08:34:52;1.85;;;0.93;;
69358;SDS011;56520;49.066;8.660;2023-04-24T08:37:18;2.28;;;0.90;;
69358;SDS011;56520;49.066;8.660;2023-04-24T08:39:43;2.30;;;0.88;;
69358;SDS011;56520;49.066;8.660;2023-04-24T08:42:09;1.90;;;0.70;;
69358;SDS011;56520;49.066;8.660;2023-04-24T08:44:36;2.85;;;0.95;;
69358;SDS011;56520;49.066;8.660;2023-04-24T08:47:02;2.53;;;0.90;;
69358;SDS011;56520;49.066;8.660;2023-04-24T08:49:28;3.95;;;1.08;;
69358;SDS011;56520;49.066;8.660;2023-04-24T08:51:53;2.58;;;0.80;;
69358;SDS011;56520;49.066;8.660;2023-04-24T08:54:19;2.88;;;0.90;;
69358;SDS011;56520;49.066;8.660;2023-04-24T08:56:45;3.97;;;0.70;;
69358;SDS011;56520;49.066;8.660;2023-04-24T08:59:14;1.48;;;0.60;;
69358;SDS011;56520;49.066;8.660;2023-04-24T09:01:40;1.75;;;0.70;;
69358;SDS011;56520;49.066;8.660;2023-04-24T09:04:06;2.80;;;0.85;;
69358;SDS011;56520;49.066;8.660;2023-04-24T09:06:34;1.63;;;0.70;;
69358;SDS011;56520;49.066;8.660;2023-04-24T09:09:00;6.10;;;1.30;;
69358;SDS011;56520;49.066;8.660;2023-04-24T09:11:27;1.88;;;0.60;;
69358;SDS011;56520;49.066;8.660;2023-04-24T09:13:55;3.10;;;0.93;;
69358;SDS011;56520;49.066;8.660;2023-04-24T09:16:21;2.40;;;0.90;;
69358;SDS011;56520;49.066;8.660;2023-04-24T09:18:49;4.00;;;0.95;;
69358;SDS011;56520;49.066;8.660;2023-04-24T09:21:15;2.70;;;0.95;;
69358;SDS011;56520;49.066;8.660;2023-04-24T09:23:40;3.85;;;0.90;;
69358;SDS011;56520;49.066;8.660;2023-04-24T09:26:06;2.83;;;1.00;;
69358;SDS011;56520;49.066;8.660;2023-04-24T09:28:35;3.15;;;1.10;;
69358;SDS011;56520;49.066;8.660;2023-04-24T09:31:22;1.88;;;0.80;;
69358;SDS011;56520;49.066;8.660;2023-04-24T09:33:55;3.05;;;1.00;;
69358;SDS011;56520;49.066;8.660;2023-04-24T09:36:26;10.50;;;1.52;;
69358;SDS011;56520;49.066;8.660;2023-04-24T09:38:53;2.80;;;1.00;;
69358;SDS011;56520;49.066;8.660;2023-04-24T09:41:22;3.22;;;1.13;;
69358;SDS011;56520;49.066;8.660;2023-04-24T09:43:48;3.03;;;1.20;;
69358;SDS011;56520;49.066;8.660;2023-04-24T09:46:13;2.90;;;0.90;;
69358;SDS011;56520;49.066;8.660;2023-04-24T09:48:38;2.95;;;1.17;;
69358;SDS011;56520;49.066;8.660;2023-04-24T09:51:04;4.97;;;1.13;;
69358;SDS011;56520;49.066;8.660;2023-04-24T09:53:35;2.92;;;1.02;;
69358;SDS011;56520;49.066;8.660;2023-04-24T09:56:07;3.42;;;1.30;;
69358;SDS011;56520;49.066;8.660;2023-04-24T09:58:34;4.68;;;1.40;;
69358;SDS011;56520;49.066;8.660;2023-04-24T10:01:01;4.22;;;1.33;;
69358;SDS011;56520;49.066;8.660;2023-04-24T10:03:29;4.07;;;1.52;;
69358;SDS011;56520;49.066;8.660;2023-04-24T10:05:59;4.18;;;1.60;;
69358;SDS011;56520;49.066;8.660;2023-04-24T10:08:26;4.93;;;1.50;;
69358;SDS011;56520;49.066;8.660;2023-04-24T10:10:57;4.10;;;1.48;;
69358;SDS011;56520;49.066;8.660;2023-04-24T10:13:24;3.55;;;1.67;;
69358;SDS011;56520;49.066;8.660;2023-04-24T10:15:50;3.35;;;1.30;;
69358;SDS011;56520;49.066;8.660;2023-04-24T10:18:16;6.15;;;1.70;;
69358;SDS011;56520;49.066;8.660;2023-04-24T10:20:41;4.63;;;1.50;;
69358;SDS011;56520;49.066;8.660;2023-04-24T10:23:07;4.03;;;1.48;;
69358;SDS011;56520;49.066;8.660;2023-04-24T10:25:35;4.25;;;1.67;;
69358;SDS011;56520;49.066;8.660;2023-04-24T10:28:02;4.10;;;1.25;;
69358;SDS011;56520;49.066;8.660;2023-04-24T10:30:29;4.57;;;1.20;;
69358;SDS011;56520;49.066;8.660;2023-04-24T10:33:04;2.88;;;1.20;;
69358;SDS011;56520;49.066;8.660;2023-04-24T10:35:33;3.65;;;1.42;;
69358;SDS011;56520;49.066;8.660;2023-04-24T10:38:06;3.58;;;1.45;;
69358;SDS011;56520;49.066;8.660;2023-04-24T10:40:34;3.13;;;1.13;;
69358;SDS011;56520;49.066;8.660;2023-04-24T10:43:04;5.93;;;1.25;;
69358;SDS011;56520;49.066;8.660;2023-04-24T10:45:33;6.38;;;1.30;;
69358;SDS011;56520;49.066;8.660;2023-04-24T10:48:05;3.63;;;1.00;;
69358;SDS011;56520;49.066;8.660;2023-04-24T10:50:42;3.88;;;1.42;;
69358;SDS011;56520;49.066;8.660;2023-04-24T10:53:16;3.05;;;1.23;;
69358;SDS011;56520;49.066;8.660;2023-04-24T10:55:46;3.20;;;1.10;;
69358;SDS011;56520;49.066;8.660;2023-04-24T10:58:16;3.53;;;1.25;;
69358;SDS011;56520;49.066;8.660;2023-04-24T11:00:55;4.10;;;1.00;;
69358;SDS011;56520;49.066;8.660;2023-04-24T11:03:24;3.25;;;1.13;;
69358;SDS011;56520;49.066;8.660;2023-04-24T11:08:23;3.53;;;1.17;;
69358;SDS011;56520;49.066;8.660;2023-04-24T11:10:58;3.42;;;1.30;;
69358;SDS011;56520;49.066;8.660;2023-04-24T11:16:26;5.45;;;1.58;;
69358;SDS011;56520;49.066;8.660;2023-04-24T11:26:54;3.50;;;1.13;;
69358;SDS011;56520;49.066;8.660;2023-04-24T11:29:21;4.38;;;1.30;;
69358;SDS011;56520;49.066;8.660;2023-04-24T11:31:47;3.30;;;1.30;;
69358;SDS011;56520;49.066;8.660;2023-04-24T11:34:15;3.20;;;1.10;;
69358;SDS011;56520;49.066;8.660;2023-04-24T11:36:44;3.47;;;1.30;;
69358;SDS011;56520;49.066;8.660;2023-04-24T11:39:11;4.40;;;1.30;;
69358;SDS011;56520;49.066;8.660;2023-04-24T11:41:37;3.90;;;1.50;;
69358;SDS011;56520;49.066;8.660;2023-04-24T11:44:03;4.38;;;1.58;;
69358;SDS011;56520;49.066;8.660;2023-04-24T11:46:31;4.53;;;1.58;;
69358;SDS011;56520;49.066;8.660;2023-04-24T11:48:57;5.05;;;1.88;;
69358;SDS011;56520;49.066;8.660;2023-04-24T11:51:23;4.93;;;1.52;;
69358;SDS011;56520;49.066;8.660;2023-04-24T11:53:51;5.10;;;1.60;;
69358;SDS011;56520;49.066;8.660;2023-04-24T11:56:23;4.18;;;1.50;;
69358;SDS011;56520;49.066;8.660;2023-04-24T11:58:51;4.68;;;1.50;;
69358;SDS011;56520;49.066;8.660;2023-04-24T12:01:18;3.90;;;1.30;;
69358;SDS011;56520;49.066;8.660;2023-04-24T12:03:47;4.50;;;1.70;;
69358;SDS011;56520;49.066;8.660;2023-04-24T12:06:13;4.00;;;1.35;;
69358;SDS011;56520;49.066;8.660;2023-04-24T12:08:38;3.88;;;1.45;;
69358;SDS011;56520;49.066;8.660;2023-04-24T12:11:04;4.13;;;1.73;;
69358;SDS011;56520;49.066;8.660;2023-04-24T12:13:34;6.15;;;1.58;;
69358;SDS011;56520;49.066;8.660;2023-04-24T12:16:03;6.82;;;1.60;;
69358;SDS011;56520;49.066;8.660;2023-04-24T12:18:32;3.75;;;1.50;;
69358;SDS011;56520;49.066;8.660;2023-04-24T12:23:43;5.18;;;1.98;;
69358;SDS011;56520;49.066;8.660;2023-04-24T12:26:10;8.05;;;1.83;;
69358;SDS011;56520;49.066;8.660;2023-04-24T12:28:36;5.80;;;2.10;;
69358;SDS011;56520;49.066;8.660;2023-04-24T12:31:02;6.25;;;1.60;;
69358;SDS011;56520;49.066;8.660;2023-04-24T12:33:28;4.78;;;1.60;;
69358;SDS011;56520;49.066;8.660;2023-04-24T12:35:58;4.88;;;1.70;;
69358;SDS011;56520;49.066;8.660;2023-04-24T12:38:25;4.53;;;1.67;;
69358;SDS011;56520;49.066;8.660;2023-04-24T12:41:05;4.70;;;1.83;;
69358;SDS011;56520;49.066;8.660;2023-04-24T12:43:38;4.65;;;1.60;;
69358;SDS011;56520;49.066;8.660;2023-04-24T12:46:04;4.75;;;1.60;;
69358;SDS011;56520;49.066;8.660;2023-04-24T12:48:29;6.78;;;1.70;;
69358;SDS011;56520;49.066;8.660;2023-04-24T12:50:59;4.72;;;1.65;;
69358;SDS011;56520;49.066;8.660;2023-04-24T12:53:28;4.22;;;1.63;;
69358;SDS011;56520;49.066;8.660;2023-04-24T12:55:54;5.20;;;1.60;;
69358;SDS011;56520;49.066;8.660;2023-04-24T12:58:23;6.93;;;1.50;;
69358;SDS011;56520;49.066;8.660;2023-04-24T13:00:49;5.20;;;1.70;;
69358;SDS011;56520;49.066;8.660;2023-04-24T13:03:15;5.68;;;1.60;;
69358;SDS011;56520;49.066;8.660;2023-04-24T13:05:41;5.00;;;1.70;;
69358;SDS011;56520;49.066;8.660;2023-04-24T13:08:09;4.20;;;1.58;;
69358;SDS011;56520;49.066;8.660;2023-04-24T13:10:39;3.80;;;1.38;;
69358;SDS011;56520;49.066;8.660;2023-04-24T13:13:05;6.68;;;1.65;;
69358;SDS011;56520;49.066;8.660;2023-04-24T13:15:30;4.65;;;1.50;;
69358;SDS011;56520;49.066;8.660;2023-04-24T13:17:56;4.47;;;1.50;;
69358;SDS011;56520;49.066;8.660;2023-04-24T13:20:21;6.05;;;1.95;;
69358;SDS011;56520;49.066;8.660;2023-04-24T13:22:46;7.18;;;2.30;;
69358;SDS011;56520;49.066;8.660;2023-04-24T13:25:12;3.97;;;1.30;;
69358;SDS011;56520;49.066;8.660;2023-04-24T13:27:38;6.82;;;1.45;;
69358;SDS011;56520;49.066;8.660;2023-04-24T13:30:04;4.82;;;1.30;;
69358;SDS011;56520;49.066;8.660;2023-04-24T13:32:30;4.22;;;1.30;;
69358;SDS011;56520;49.066;8.660;2023-04-24T13:34:56;3.80;;;1.30;;
69358;SDS011;56520;49.066;8.660;2023-04-24T13:37:22;3.28;;;1.20;;
69358;SDS011;56520;49.066;8.660;2023-04-24T13:39:48;4.75;;;1.40;;
69358;SDS011;56520;49.066;8.660;2023-04-24T13:42:13;3.92;;;1.25;;
69358;SDS011;56520;49.066;8.660;2023-04-24T13:44:39;3.67;;;1.38;;
69358;SDS011;56520;49.066;8.660;2023-04-24T13:47:05;4.50;;;1.45;;
69358;SDS011;56520;49.066;8.660;2023-04-24T13:49:30;4.78;;;1.60;;
69358;SDS011;56520;49.066;8.660;2023-04-24T13:51:56;4.15;;;1.50;;
69358;SDS011;56520;49.066;8.660;2023-04-24T13:54:21;4.63;;;1.58;;
69358;SDS011;56520;49.066;8.660;2023-04-24T13:56:48;4.10;;;1.50;;
69358;SDS011;56520;49.066;8.660;2023-04-24T13:59:14;4.30;;;1.40;;
69358;SDS011;56520;49.066;8.660;2023-04-24T14:01:40;5.05;;;1.50;;
69358;SDS011;56520;49.066;8.660;2023-04-24T14:04:05;5.20;;;2.00;;
69358;SDS011;56520;49.066;8.660;2023-04-24T14:06:30;5.10;;;1.40;;
69358;SDS011;56520;49.066;8.660;2023-04-24T14:08:56;4.50;;;1.52;;
69358;SDS011;56520;49.066;8.660;2023-04-24T14:11:22;6.85;;;1.80;;
69358;SDS011;56520;49.066;8.660;2023-04-24T14:13:47;5.25;;;1.52;;
69358;SDS011;56520;49.066;8.660;2023-04-24T14:16:13;3.63;;;1.45;;
69358;SDS011;56520;49.066;8.660;2023-04-24T14:18:39;6.35;;;1.70;;
69358;SDS011;56520;49.066;8.660;2023-04-24T14:21:05;3.67;;;1.20;;
69358;SDS011;56520;49.066;8.660;2023-04-24T14:23:30;5.15;;;1.70;;
69358;SDS011;56520;49.066;8.660;2023-04-24T14:25:56;5.00;;;1.60;;
69358;SDS011;56520;49.066;8.660;2023-04-24T14:28:22;4.57;;;1.70;;
69358;SDS011;56520;49.066;8.660;2023-04-24T14:30:48;4.70;;;1.45;;
69358;SDS011;56520;49.066;8.660;2023-04-24T14:33:13;3.75;;;1.40;;
69358;SDS011;56520;49.066;8.660;2023-04-24T14:35:40;3.30;;;1.20;;
69358;SDS011;56520;49.066;8.660;2023-04-24T14:38:07;5.38;;;1.75;;
69358;SDS011;56520;49.066;8.660;2023-04-24T14:40:33;5.97;;;1.20;;
69358;SDS011;56520;49.066;8.660;2023-04-24T14:42:58;4.40;;;1.60;;
69358;SDS011;56520;49.066;8.660;2023-04-24T14:45:24;5.35;;;1.30;;
69358;SDS011;56520;49.066;8.660;2023-04-24T14:47:50;5.22;;;1.50;;
69358;SDS011;56520;49.066;8.660;2023-04-24T14:50:16;3.13;;;1.30;;
69358;SDS011;56520;49.066;8.660;2023-04-24T14:52:41;4.05;;;1.50;;
69358;SDS011;56520;49.066;8.660;2023-04-24T14:55:07;5.20;;;1.50;;
69358;SDS011;56520;49.066;8.660;2023-04-24T14:57:33;3.90;;;1.17;;
69358;SDS011;56520;49.066;8.660;2023-04-24T14:59:59;4.10;;;1.55;;